sensor_id;sensor_type;location;lat;lon;timestamp;P1;durP1;ratioP1;P2;durP2;ratioP2
27428;SDS011;14881;48.092;11.574;2022-12-07T00:01:04;23.45;;;15.60;;
27428;SDS011;14881;48.092;11.574;2022-12-07T00:03:34;24.17;;;16.15;;
27428;SDS011;14881;48.092;11.574;2022-12-07T00:06:03;20.85;;;14.27;;
27428;SDS011;14881;48.092;11.574;2022-12-07T00:08:32;21.00;;;14.70;;
27428;SDS011;14881;48.092;11.574;2022-12-07T00:11:02;21.88;;;14.98;;
27428;SDS011;14881;48.092;11.574;2022-12-07T00:13:30;22.98;;;14.88;;
27428;SDS011;14881;48.092;11.574;2022-12-07T00:16:00;18.48;;;13.15;;
27428;SDS011;14881;48.092;11.574;2022-12-07T00:18:28;19.58;;;13.23;;
27428;SDS011;14881;48.092;11.574;2022-12-07T00:21:00;21.00;;;13.57;;
27428;SDS011;14881;48.092;11.574;2022-12-07T00:23:28;20.23;;;13.07;;
27428;SDS011;14881;48.092;11.574;2022-12-07T00:26:02;21.27;;;13.90;;
27428;SDS011;14881;48.092;11.574;2022-12-07T00:28:30;19.73;;;13.43;;
27428;SDS011;14881;48.092;11.574;2022-12-07T00:31:00;20.23;;;12.93;;
27428;SDS011;14881;48.092;11.574;2022-12-07T00:33:29;18.83;;;13.10;;
27428;SDS011;14881;48.092;11.574;2022-12-07T00:35:57;17.88;;;12.98;;
27428;SDS011;14881;48.092;11.574;2022-12-07T00:38:28;20.48;;;12.88;;
27428;SDS011;14881;48.092;11.574;2022-12-07T00:40:58;17.35;;;12.13;;
27428;SDS011;14881;48.092;11.574;2022-12-07T00:43:26;18.67;;;12.82;;
27428;SDS011;14881;48.092;11.574;2022-12-07T00:45:54;18.58;;;13.38;;
27428;SDS011;14881;48.092;11.574;2022-12-07T00:48:23;21.70;;;13.18;;
27428;SDS011;14881;48.092;11.574;2022-12-07T00:50:51;17.85;;;12.88;;
27428;SDS011;14881;48.092;11.574;2022-12-07T00:53:19;19.65;;;13.45;;
27428;SDS011;14881;48.092;11.574;2022-12-07T00:55:48;19.50;;;13.43;;
27428;SDS011;14881;48.092;11.574;2022-12-07T00:58:16;20.38;;;13.65;;
27428;SDS011;14881;48.092;11.574;2022-12-07T01:00:43;18.88;;;13.40;;
27428;SDS011;14881;48.092;11.574;2022-12-07T01:03:12;20.17;;;14.85;;
27428;SDS011;14881;48.092;11.574;2022-12-07T01:05:48;19.88;;;14.35;;
27428;SDS011;14881;48.092;11.574;2022-12-07T01:10:45;16.35;;;11.98;;
27428;SDS011;14881;48.092;11.574;2022-12-07T01:13:14;17.80;;;11.70;;
27428;SDS011;14881;48.092;11.574;2022-12-07T01:15:43;17.10;;;12.13;;
27428;SDS011;14881;48.092;11.574;2022-12-07T01:18:11;18.88;;;12.00;;
27428;SDS011;14881;48.092;11.574;2022-12-07T01:20:39;15.50;;;11.60;;
27428;SDS011;14881;48.092;11.574;2022-12-07T01:23:06;18.98;;;13.10;;
27428;SDS011;14881;48.092;11.574;2022-12-07T01:25:34;17.92;;;11.77;;
27428;SDS011;14881;48.092;11.574;2022-12-07T01:28:03;17.98;;;12.10;;
27428;SDS011;14881;48.092;11.574;2022-12-07T01:30:32;16.67;;;12.48;;
27428;SDS011;14881;48.092;11.574;2022-12-07T01:33:00;20.20;;;13.65;;
27428;SDS011;14881;48.092;11.574;2022-12-07T01:35:27;19.80;;;13.35;;
27428;SDS011;14881;48.092;11.574;2022-12-07T01:37:55;18.45;;;13.30;;
27428;SDS011;14881;48.092;11.574;2022-12-07T01:40:25;18.50;;;12.55;;
27428;SDS011;14881;48.092;11.574;2022-12-07T01:42:53;18.20;;;12.32;;
27428;SDS011;14881;48.092;11.574;2022-12-07T01:48:14;18.23;;;12.48;;
27428;SDS011;14881;48.092;11.574;2022-12-07T01:50:46;19.10;;;13.05;;
27428;SDS011;14881;48.092;11.574;2022-12-07T01:53:20;18.92;;;12.57;;
27428;SDS011;14881;48.092;11.574;2022-12-07T01:55:51;18.33;;;11.98;;
27428;SDS011;14881;48.092;11.574;2022-12-07T01:58:21;21.02;;;13.45;;
27428;SDS011;14881;48.092;11.574;2022-12-07T02:00:51;18.60;;;13.48;;
27428;SDS011;14881;48.092;11.574;2022-12-07T02:03:22;19.98;;;13.95;;
27428;SDS011;14881;48.092;11.574;2022-12-07T02:05:54;17.23;;;13.20;;
27428;SDS011;14881;48.092;11.574;2022-12-07T02:08:23;16.67;;;12.52;;
27428;SDS011;14881;48.092;11.574;2022-12-07T02:10:51;19.20;;;13.15;;
27428;SDS011;14881;48.092;11.574;2022-12-07T02:13:19;21.60;;;13.10;;
27428;SDS011;14881;48.092;11.574;2022-12-07T02:18:45;18.33;;;13.13;;
27428;SDS011;14881;48.092;11.574;2022-12-07T02:21:29;19.30;;;13.68;;
27428;SDS011;14881;48.092;11.574;2022-12-07T02:24:13;20.42;;;12.73;;
27428;SDS011;14881;48.092;11.574;2022-12-07T02:26:55;18.77;;;13.15;;
27428;SDS011;14881;48.092;11.574;2022-12-07T02:29:44;17.95;;;12.63;;
27428;SDS011;14881;48.092;11.574;2022-12-07T02:34:49;19.13;;;13.93;;
27428;SDS011;14881;48.092;11.574;2022-12-07T02:37:21;19.55;;;13.55;;
27428;SDS011;14881;48.092;11.574;2022-12-07T02:39:58;21.77;;;14.60;;
27428;SDS011;14881;48.092;11.574;2022-12-07T02:42:30;20.27;;;14.10;;
27428;SDS011;14881;48.092;11.574;2022-12-07T02:45:04;20.80;;;13.77;;
27428;SDS011;14881;48.092;11.574;2022-12-07T02:47:34;21.17;;;14.02;;
27428;SDS011;14881;48.092;11.574;2022-12-07T02:50:04;18.70;;;13.48;;
27428;SDS011;14881;48.092;11.574;2022-12-07T02:52:33;20.13;;;13.85;;
27428;SDS011;14881;48.092;11.574;2022-12-07T02:55:01;19.35;;;13.98;;
27428;SDS011;14881;48.092;11.574;2022-12-07T02:57:34;22.60;;;14.35;;
27428;SDS011;14881;48.092;11.574;2022-12-07T03:00:19;21.27;;;13.40;;
27428;SDS011;14881;48.092;11.574;2022-12-07T03:02:53;20.08;;;13.75;;
27428;SDS011;14881;48.092;11.574;2022-12-07T03:05:31;19.85;;;13.60;;
27428;SDS011;14881;48.092;11.574;2022-12-07T03:10:44;20.90;;;12.88;;
27428;SDS011;14881;48.092;11.574;2022-12-07T03:13:19;19.50;;;13.23;;
27428;SDS011;14881;48.092;11.574;2022-12-07T03:15:55;19.85;;;13.55;;
27428;SDS011;14881;48.092;11.574;2022-12-07T03:18:30;18.92;;;13.88;;
27428;SDS011;14881;48.092;11.574;2022-12-07T03:21:01;17.00;;;11.68;;
27428;SDS011;14881;48.092;11.574;2022-12-07T03:23:32;17.27;;;12.00;;
27428;SDS011;14881;48.092;11.574;2022-12-07T03:26:06;18.13;;;12.25;;
27428;SDS011;14881;48.092;11.574;2022-12-07T03:28:38;18.67;;;13.52;;
27428;SDS011;14881;48.092;11.574;2022-12-07T03:31:12;19.23;;;13.68;;
27428;SDS011;14881;48.092;11.574;2022-12-07T03:33:44;19.80;;;12.45;;
27428;SDS011;14881;48.092;11.574;2022-12-07T03:36:19;17.52;;;12.60;;
27428;SDS011;14881;48.092;11.574;2022-12-07T03:38:52;17.52;;;12.63;;
27428;SDS011;14881;48.092;11.574;2022-12-07T03:41:25;16.77;;;12.32;;
27428;SDS011;14881;48.092;11.574;2022-12-07T03:43:55;17.85;;;12.73;;
27428;SDS011;14881;48.092;11.574;2022-12-07T03:46:27;16.75;;;12.30;;
27428;SDS011;14881;48.092;11.574;2022-12-07T03:49:04;17.83;;;12.75;;
27428;SDS011;14881;48.092;11.574;2022-12-07T03:51:38;17.10;;;11.93;;
27428;SDS011;14881;48.092;11.574;2022-12-07T03:54:12;20.15;;;13.27;;
27428;SDS011;14881;48.092;11.574;2022-12-07T03:56:46;22.27;;;13.30;;
27428;SDS011;14881;48.092;11.574;2022-12-07T03:59:15;17.20;;;12.63;;
27428;SDS011;14881;48.092;11.574;2022-12-07T04:01:51;19.17;;;13.02;;
27428;SDS011;14881;48.092;11.574;2022-12-07T04:04:21;17.95;;;12.05;;
27428;SDS011;14881;48.092;11.574;2022-12-07T04:06:49;20.83;;;13.30;;
27428;SDS011;14881;48.092;11.574;2022-12-07T04:09:17;21.58;;;14.40;;
27428;SDS011;14881;48.092;11.574;2022-12-07T04:11:45;22.23;;;15.10;;
27428;SDS011;14881;48.092;11.574;2022-12-07T04:14:13;20.65;;;14.02;;
27428;SDS011;14881;48.092;11.574;2022-12-07T04:16:48;23.08;;;15.13;;
27428;SDS011;14881;48.092;11.574;2022-12-07T04:19:17;24.45;;;16.25;;
27428;SDS011;14881;48.092;11.574;2022-12-07T04:21:46;22.10;;;15.00;;
27428;SDS011;14881;48.092;11.574;2022-12-07T04:24:15;23.23;;;15.98;;
27428;SDS011;14881;48.092;11.574;2022-12-07T04:26:43;29.15;;;17.92;;
27428;SDS011;14881;48.092;11.574;2022-12-07T04:29:12;27.80;;;17.75;;
27428;SDS011;14881;48.092;11.574;2022-12-07T04:31:40;25.20;;;16.13;;
27428;SDS011;14881;48.092;11.574;2022-12-07T04:34:10;28.73;;;18.80;;
27428;SDS011;14881;48.092;11.574;2022-12-07T04:36:38;25.65;;;17.58;;
27428;SDS011;14881;48.092;11.574;2022-12-07T04:39:07;27.65;;;17.65;;
27428;SDS011;14881;48.092;11.574;2022-12-07T04:41:35;30.15;;;18.25;;
27428;SDS011;14881;48.092;11.574;2022-12-07T04:44:03;30.15;;;17.70;;
27428;SDS011;14881;48.092;11.574;2022-12-07T04:46:33;26.25;;;17.60;;
27428;SDS011;14881;48.092;11.574;2022-12-07T04:49:01;30.73;;;19.50;;
27428;SDS011;14881;48.092;11.574;2022-12-07T04:51:30;29.25;;;18.92;;
27428;SDS011;14881;48.092;11.574;2022-12-07T04:53:58;28.40;;;17.83;;
27428;SDS011;14881;48.092;11.574;2022-12-07T04:56:26;26.90;;;16.80;;
27428;SDS011;14881;48.092;11.574;2022-12-07T04:58:54;28.25;;;18.27;;
27428;SDS011;14881;48.092;11.574;2022-12-07T05:01:23;30.42;;;19.63;;
27428;SDS011;14881;48.092;11.574;2022-12-07T05:03:51;29.08;;;18.08;;
27428;SDS011;14881;48.092;11.574;2022-12-07T05:06:19;28.98;;;17.60;;
27428;SDS011;14881;48.092;11.574;2022-12-07T05:08:48;31.35;;;19.52;;
27428;SDS011;14881;48.092;11.574;2022-12-07T05:11:16;29.73;;;18.27;;
27428;SDS011;14881;48.092;11.574;2022-12-07T05:13:58;29.52;;;17.60;;
27428;SDS011;14881;48.092;11.574;2022-12-07T05:16:28;30.92;;;18.33;;
27428;SDS011;14881;48.092;11.574;2022-12-07T05:18:57;29.88;;;17.95;;
27428;SDS011;14881;48.092;11.574;2022-12-07T05:21:24;30.48;;;19.85;;
27428;SDS011;14881;48.092;11.574;2022-12-07T05:23:54;29.33;;;17.45;;
27428;SDS011;14881;48.092;11.574;2022-12-07T05:26:22;28.23;;;18.55;;
27428;SDS011;14881;48.092;11.574;2022-12-07T05:28:50;29.80;;;18.35;;
27428;SDS011;14881;48.092;11.574;2022-12-07T05:31:18;28.90;;;17.77;;
27428;SDS011;14881;48.092;11.574;2022-12-07T05:33:46;31.42;;;18.42;;
27428;SDS011;14881;48.092;11.574;2022-12-07T05:36:14;28.25;;;18.77;;
27428;SDS011;14881;48.092;11.574;2022-12-07T05:38:42;31.33;;;18.52;;
27428;SDS011;14881;48.092;11.574;2022-12-07T05:41:13;29.38;;;16.98;;
27428;SDS011;14881;48.092;11.574;2022-12-07T05:43:56;26.55;;;17.35;;
27428;SDS011;14881;48.092;11.574;2022-12-07T05:46:23;30.10;;;17.98;;
27428;SDS011;14881;48.092;11.574;2022-12-07T05:48:51;28.77;;;18.52;;
27428;SDS011;14881;48.092;11.574;2022-12-07T05:51:19;26.38;;;16.02;;
27428;SDS011;14881;48.092;11.574;2022-12-07T05:53:47;28.38;;;17.02;;
27428;SDS011;14881;48.092;11.574;2022-12-07T05:56:16;27.58;;;17.55;;
27428;SDS011;14881;48.092;11.574;2022-12-07T05:58:44;27.75;;;17.65;;
27428;SDS011;14881;48.092;11.574;2022-12-07T06:01:29;26.20;;;17.33;;
27428;SDS011;14881;48.092;11.574;2022-12-07T06:03:57;27.45;;;17.90;;
27428;SDS011;14881;48.092;11.574;2022-12-07T06:06:25;29.20;;;18.75;;
27428;SDS011;14881;48.092;11.574;2022-12-07T06:08:52;29.92;;;18.90;;
27428;SDS011;14881;48.092;11.574;2022-12-07T06:11:21;28.65;;;18.30;;
27428;SDS011;14881;48.092;11.574;2022-12-07T06:14:07;29.33;;;17.77;;
27428;SDS011;14881;48.092;11.574;2022-12-07T06:16:34;28.45;;;18.77;;
27428;SDS011;14881;48.092;11.574;2022-12-07T06:19:04;27.42;;;18.00;;
27428;SDS011;14881;48.092;11.574;2022-12-07T06:21:32;31.15;;;19.25;;
27428;SDS011;14881;48.092;11.574;2022-12-07T06:24:00;30.95;;;18.98;;
27428;SDS011;14881;48.092;11.574;2022-12-07T06:26:29;28.65;;;18.52;;
27428;SDS011;14881;48.092;11.574;2022-12-07T06:28:57;30.48;;;18.33;;
27428;SDS011;14881;48.092;11.574;2022-12-07T06:31:25;27.42;;;18.42;;
27428;SDS011;14881;48.092;11.574;2022-12-07T06:33:56;30.58;;;18.50;;
27428;SDS011;14881;48.092;11.574;2022-12-07T06:36:25;30.50;;;19.20;;
27428;SDS011;14881;48.092;11.574;2022-12-07T06:38:53;28.83;;;18.83;;
27428;SDS011;14881;48.092;11.574;2022-12-07T06:41:21;30.55;;;19.27;;
27428;SDS011;14881;48.092;11.574;2022-12-07T06:43:51;35.38;;;21.30;;
27428;SDS011;14881;48.092;11.574;2022-12-07T06:46:21;29.00;;;19.33;;
27428;SDS011;14881;48.092;11.574;2022-12-07T06:48:49;33.65;;;18.63;;
27428;SDS011;14881;48.092;11.574;2022-12-07T06:51:17;32.35;;;19.85;;
27428;SDS011;14881;48.092;11.574;2022-12-07T06:53:45;30.83;;;19.38;;
27428;SDS011;14881;48.092;11.574;2022-12-07T06:56:12;29.80;;;19.30;;
27428;SDS011;14881;48.092;11.574;2022-12-07T06:58:40;30.60;;;19.85;;
27428;SDS011;14881;48.092;11.574;2022-12-07T07:01:10;29.48;;;18.55;;
27428;SDS011;14881;48.092;11.574;2022-12-07T07:03:39;31.25;;;19.08;;
27428;SDS011;14881;48.092;11.574;2022-12-07T07:06:10;32.53;;;19.15;;
27428;SDS011;14881;48.092;11.574;2022-12-07T07:08:38;28.15;;;17.63;;
27428;SDS011;14881;48.092;11.574;2022-12-07T07:11:06;27.38;;;17.85;;
27428;SDS011;14881;48.092;11.574;2022-12-07T07:13:35;26.20;;;17.55;;
27428;SDS011;14881;48.092;11.574;2022-12-07T07:16:03;29.75;;;19.15;;
27428;SDS011;14881;48.092;11.574;2022-12-07T07:18:33;32.38;;;19.08;;
27428;SDS011;14881;48.092;11.574;2022-12-07T07:21:01;30.83;;;18.42;;
27428;SDS011;14881;48.092;11.574;2022-12-07T07:23:28;28.80;;;18.33;;
27428;SDS011;14881;48.092;11.574;2022-12-07T07:25:57;35.33;;;20.20;;
27428;SDS011;14881;48.092;11.574;2022-12-07T07:28:24;30.95;;;18.83;;
27428;SDS011;14881;48.092;11.574;2022-12-07T07:30:52;27.52;;;17.70;;
27428;SDS011;14881;48.092;11.574;2022-12-07T07:33:20;25.52;;;16.80;;
27428;SDS011;14881;48.092;11.574;2022-12-07T07:35:49;26.50;;;17.63;;
27428;SDS011;14881;48.092;11.574;2022-12-07T07:38:17;27.27;;;17.10;;
27428;SDS011;14881;48.092;11.574;2022-12-07T07:40:44;27.85;;;17.17;;
27428;SDS011;14881;48.092;11.574;2022-12-07T07:43:12;26.60;;;16.95;;
27428;SDS011;14881;48.092;11.574;2022-12-07T07:45:40;25.85;;;16.90;;
27428;SDS011;14881;48.092;11.574;2022-12-07T07:48:08;27.65;;;17.08;;
27428;SDS011;14881;48.092;11.574;2022-12-07T07:50:38;26.55;;;17.40;;
27428;SDS011;14881;48.092;11.574;2022-12-07T07:53:07;28.23;;;16.92;;
27428;SDS011;14881;48.092;11.574;2022-12-07T07:55:35;30.30;;;17.65;;
27428;SDS011;14881;48.092;11.574;2022-12-07T07:58:03;28.67;;;17.90;;
27428;SDS011;14881;48.092;11.574;2022-12-07T08:00:31;29.80;;;18.13;;
27428;SDS011;14881;48.092;11.574;2022-12-07T08:02:58;29.33;;;18.05;;
27428;SDS011;14881;48.092;11.574;2022-12-07T08:05:26;29.52;;;16.90;;
27428;SDS011;14881;48.092;11.574;2022-12-07T08:07:54;28.92;;;17.38;;
27428;SDS011;14881;48.092;11.574;2022-12-07T08:10:23;28.58;;;17.23;;
27428;SDS011;14881;48.092;11.574;2022-12-07T08:12:51;29.15;;;17.33;;
27428;SDS011;14881;48.092;11.574;2022-12-07T08:15:37;26.38;;;16.92;;
27428;SDS011;14881;48.092;11.574;2022-12-07T08:18:06;27.58;;;17.55;;
27428;SDS011;14881;48.092;11.574;2022-12-07T08:20:34;29.23;;;18.05;;
27428;SDS011;14881;48.092;11.574;2022-12-07T08:23:03;25.30;;;16.83;;
27428;SDS011;14881;48.092;11.574;2022-12-07T08:25:33;25.50;;;16.42;;
27428;SDS011;14881;48.092;11.574;2022-12-07T08:28:01;25.02;;;15.98;;
27428;SDS011;14881;48.092;11.574;2022-12-07T08:30:29;27.08;;;17.30;;
27428;SDS011;14881;48.092;11.574;2022-12-07T08:32:57;24.35;;;16.02;;
27428;SDS011;14881;48.092;11.574;2022-12-07T08:35:25;27.65;;;16.77;;
27428;SDS011;14881;48.092;11.574;2022-12-07T08:37:53;25.35;;;16.58;;
27428;SDS011;14881;48.092;11.574;2022-12-07T08:40:20;23.70;;;15.50;;
27428;SDS011;14881;48.092;11.574;2022-12-07T08:42:50;26.15;;;16.23;;
27428;SDS011;14881;48.092;11.574;2022-12-07T08:45:18;27.00;;;17.40;;
27428;SDS011;14881;48.092;11.574;2022-12-07T08:47:53;24.48;;;15.73;;
27428;SDS011;14881;48.092;11.574;2022-12-07T08:50:24;21.30;;;14.65;;
27428;SDS011;14881;48.092;11.574;2022-12-07T08:52:53;24.85;;;16.15;;
27428;SDS011;14881;48.092;11.574;2022-12-07T08:55:22;24.77;;;16.23;;
27428;SDS011;14881;48.092;11.574;2022-12-07T08:57:52;27.05;;;16.15;;
27428;SDS011;14881;48.092;11.574;2022-12-07T09:00:20;24.50;;;15.45;;
27428;SDS011;14881;48.092;11.574;2022-12-07T09:02:48;28.75;;;16.88;;
27428;SDS011;14881;48.092;11.574;2022-12-07T09:05:16;23.27;;;15.65;;
27428;SDS011;14881;48.092;11.574;2022-12-07T09:07:46;24.85;;;15.63;;
27428;SDS011;14881;48.092;11.574;2022-12-07T09:10:17;22.98;;;15.57;;
27428;SDS011;14881;48.092;11.574;2022-12-07T09:12:45;24.70;;;16.15;;
27428;SDS011;14881;48.092;11.574;2022-12-07T09:15:14;24.70;;;15.90;;
27428;SDS011;14881;48.092;11.574;2022-12-07T09:17:43;23.77;;;16.17;;
27428;SDS011;14881;48.092;11.574;2022-12-07T09:20:11;23.85;;;15.20;;
27428;SDS011;14881;48.092;11.574;2022-12-07T09:22:39;23.45;;;15.35;;
27428;SDS011;14881;48.092;11.574;2022-12-07T09:25:07;22.52;;;14.20;;
27428;SDS011;14881;48.092;11.574;2022-12-07T09:27:35;21.77;;;14.68;;
27428;SDS011;14881;48.092;11.574;2022-12-07T09:30:03;26.00;;;14.40;;
27428;SDS011;14881;48.092;11.574;2022-12-07T09:32:33;19.25;;;13.48;;
27428;SDS011;14881;48.092;11.574;2022-12-07T09:35:01;23.55;;;14.95;;
27428;SDS011;14881;48.092;11.574;2022-12-07T09:37:29;20.63;;;13.52;;
27428;SDS011;14881;48.092;11.574;2022-12-07T09:40:01;23.33;;;13.82;;
27428;SDS011;14881;48.092;11.574;2022-12-07T09:42:32;21.42;;;13.98;;
27428;SDS011;14881;48.092;11.574;2022-12-07T09:45:04;18.88;;;13.18;;
27428;SDS011;14881;48.092;11.574;2022-12-07T09:47:34;19.95;;;12.75;;
27428;SDS011;14881;48.092;11.574;2022-12-07T09:50:03;21.17;;;13.85;;
27428;SDS011;14881;48.092;11.574;2022-12-07T09:52:33;21.33;;;13.93;;
27428;SDS011;14881;48.092;11.574;2022-12-07T09:55:08;18.85;;;12.40;;
27428;SDS011;14881;48.092;11.574;2022-12-07T09:57:39;16.58;;;12.32;;
27428;SDS011;14881;48.092;11.574;2022-12-07T10:00:11;19.50;;;12.38;;
27428;SDS011;14881;48.092;11.574;2022-12-07T10:02:43;16.50;;;11.90;;
27428;SDS011;14881;48.092;11.574;2022-12-07T10:05:13;15.63;;;11.35;;
27428;SDS011;14881;48.092;11.574;2022-12-07T10:07:49;16.05;;;11.65;;
27428;SDS011;14881;48.092;11.574;2022-12-07T10:10:19;17.73;;;12.18;;
27428;SDS011;14881;48.092;11.574;2022-12-07T10:13:01;16.48;;;11.30;;
27428;SDS011;14881;48.092;11.574;2022-12-07T10:18:18;16.42;;;11.65;;
27428;SDS011;14881;48.092;11.574;2022-12-07T10:20:47;16.92;;;11.50;;
27428;SDS011;14881;48.092;11.574;2022-12-07T10:23:17;16.30;;;11.45;;
27428;SDS011;14881;48.092;11.574;2022-12-07T10:25:45;15.90;;;11.85;;
27428;SDS011;14881;48.092;11.574;2022-12-07T10:28:15;16.85;;;11.48;;
27428;SDS011;14881;48.092;11.574;2022-12-07T10:30:48;17.02;;;11.95;;
27428;SDS011;14881;48.092;11.574;2022-12-07T10:33:28;15.65;;;10.70;;
27428;SDS011;14881;48.092;11.574;2022-12-07T10:36:14;14.55;;;10.63;;
27428;SDS011;14881;48.092;11.574;2022-12-07T10:38:45;15.63;;;10.68;;
27428;SDS011;14881;48.092;11.574;2022-12-07T10:41:14;15.07;;;10.65;;
27428;SDS011;14881;48.092;11.574;2022-12-07T10:43:46;19.88;;;10.68;;
27428;SDS011;14881;48.092;11.574;2022-12-07T10:52:29;14.40;;;9.80;;
27428;SDS011;14881;48.092;11.574;2022-12-07T10:55:16;13.63;;;9.43;;
27428;SDS011;14881;48.092;11.574;2022-12-07T10:57:55;13.45;;;9.57;;
27428;SDS011;14881;48.092;11.574;2022-12-07T11:00:35;13.90;;;9.40;;
27428;SDS011;14881;48.092;11.574;2022-12-07T11:03:15;11.73;;;8.35;;
27428;SDS011;14881;48.092;11.574;2022-12-07T11:05:56;14.57;;;9.95;;
27428;SDS011;14881;48.092;11.574;2022-12-07T11:08:38;14.15;;;9.90;;
27428;SDS011;14881;48.092;11.574;2022-12-07T11:11:13;13.43;;;9.05;;
27428;SDS011;14881;48.092;11.574;2022-12-07T11:13:47;13.65;;;8.48;;
27428;SDS011;14881;48.092;11.574;2022-12-07T11:16:24;10.80;;;8.32;;
27428;SDS011;14881;48.092;11.574;2022-12-07T11:19:16;10.75;;;8.18;;
27428;SDS011;14881;48.092;11.574;2022-12-07T11:21:57;11.52;;;8.43;;
27428;SDS011;14881;48.092;11.574;2022-12-07T11:24:31;12.68;;;9.27;;
27428;SDS011;14881;48.092;11.574;2022-12-07T11:27:09;9.35;;;7.30;;
27428;SDS011;14881;48.092;11.574;2022-12-07T11:35:40;13.00;;;9.38;;
27428;SDS011;14881;48.092;11.574;2022-12-07T11:38:18;11.23;;;8.77;;
27428;SDS011;14881;48.092;11.574;2022-12-07T11:40:55;10.55;;;8.00;;
27428;SDS011;14881;48.092;11.574;2022-12-07T11:43:48;11.50;;;8.75;;
27428;SDS011;14881;48.092;11.574;2022-12-07T11:46:22;12.95;;;9.75;;
27428;SDS011;14881;48.092;11.574;2022-12-07T11:48:55;10.18;;;7.97;;
27428;SDS011;14881;48.092;11.574;2022-12-07T11:54:03;11.88;;;8.85;;
27428;SDS011;14881;48.092;11.574;2022-12-07T11:56:38;10.68;;;6.97;;
27428;SDS011;14881;48.092;11.574;2022-12-07T11:59:08;11.07;;;7.07;;
27428;SDS011;14881;48.092;11.574;2022-12-07T12:01:47;8.95;;;7.22;;
27428;SDS011;14881;48.092;11.574;2022-12-07T12:04:26;10.07;;;7.10;;
27428;SDS011;14881;48.092;11.574;2022-12-07T12:07:01;11.00;;;7.88;;
27428;SDS011;14881;48.092;11.574;2022-12-07T12:09:55;10.95;;;7.70;;
27428;SDS011;14881;48.092;11.574;2022-12-07T12:12:32;11.55;;;7.95;;
27428;SDS011;14881;48.092;11.574;2022-12-07T12:15:35;12.07;;;8.32;;
27428;SDS011;14881;48.092;11.574;2022-12-07T12:18:25;13.02;;;8.52;;
27428;SDS011;14881;48.092;11.574;2022-12-07T12:21:19;11.93;;;8.13;;
27428;SDS011;14881;48.092;11.574;2022-12-07T12:23:55;12.40;;;8.63;;
27428;SDS011;14881;48.092;11.574;2022-12-07T12:26:28;11.52;;;8.90;;
27428;SDS011;14881;48.092;11.574;2022-12-07T12:28:59;12.77;;;8.98;;
27428;SDS011;14881;48.092;11.574;2022-12-07T12:31:32;12.40;;;8.38;;
27428;SDS011;14881;48.092;11.574;2022-12-07T12:34:03;12.70;;;9.30;;
27428;SDS011;14881;48.092;11.574;2022-12-07T12:36:51;16.67;;;9.70;;
27428;SDS011;14881;48.092;11.574;2022-12-07T12:39:19;12.32;;;9.57;;
27428;SDS011;14881;48.092;11.574;2022-12-07T12:41:54;13.27;;;9.23;;
27428;SDS011;14881;48.092;11.574;2022-12-07T12:44:43;14.07;;;9.77;;
27428;SDS011;14881;48.092;11.574;2022-12-07T12:51:00;13.02;;;9.52;;
27428;SDS011;14881;48.092;11.574;2022-12-07T12:54:05;14.02;;;9.77;;
27428;SDS011;14881;48.092;11.574;2022-12-07T12:56:42;16.60;;;9.18;;
27428;SDS011;14881;48.092;11.574;2022-12-07T12:59:23;11.15;;;8.25;;
27428;SDS011;14881;48.092;11.574;2022-12-07T13:01:54;11.90;;;8.45;;
27428;SDS011;14881;48.092;11.574;2022-12-07T13:04:36;13.35;;;9.10;;
27428;SDS011;14881;48.092;11.574;2022-12-07T13:07:11;12.02;;;8.70;;
27428;SDS011;14881;48.092;11.574;2022-12-07T13:09:44;12.45;;;8.68;;
27428;SDS011;14881;48.092;11.574;2022-12-07T13:12:13;10.85;;;8.23;;
27428;SDS011;14881;48.092;11.574;2022-12-07T13:14:53;12.13;;;8.48;;
27428;SDS011;14881;48.092;11.574;2022-12-07T13:23:12;12.13;;;8.85;;
27428;SDS011;14881;48.092;11.574;2022-12-07T13:25:46;13.23;;;8.73;;
27428;SDS011;14881;48.092;11.574;2022-12-07T13:28:21;12.88;;;8.75;;
27428;SDS011;14881;48.092;11.574;2022-12-07T13:31:00;12.35;;;8.40;;
27428;SDS011;14881;48.092;11.574;2022-12-07T13:33:39;11.95;;;8.82;;
27428;SDS011;14881;48.092;11.574;2022-12-07T13:36:12;14.95;;;8.63;;
27428;SDS011;14881;48.092;11.574;2022-12-07T13:38:51;14.10;;;9.05;;
27428;SDS011;14881;48.092;11.574;2022-12-07T13:41:22;12.95;;;9.07;;
27428;SDS011;14881;48.092;11.574;2022-12-07T13:43:53;15.95;;;9.93;;
27428;SDS011;14881;48.092;11.574;2022-12-07T13:46:27;13.13;;;8.23;;
27428;SDS011;14881;48.092;11.574;2022-12-07T13:49:12;14.15;;;9.13;;
27428;SDS011;14881;48.092;11.574;2022-12-07T13:51:44;13.63;;;9.35;;
27428;SDS011;14881;48.092;11.574;2022-12-07T13:54:12;14.43;;;9.77;;
27428;SDS011;14881;48.092;11.574;2022-12-07T13:56:47;14.65;;;9.13;;
27428;SDS011;14881;48.092;11.574;2022-12-07T13:59:17;12.63;;;9.75;;
27428;SDS011;14881;48.092;11.574;2022-12-07T14:01:48;14.75;;;9.90;;
27428;SDS011;14881;48.092;11.574;2022-12-07T14:04:31;14.07;;;9.40;;
27428;SDS011;14881;48.092;11.574;2022-12-07T14:07:15;15.88;;;12.40;;
27428;SDS011;14881;48.092;11.574;2022-12-07T14:09:54;16.63;;;9.80;;
27428;SDS011;14881;48.092;11.574;2022-12-07T14:12:25;12.38;;;8.95;;
27428;SDS011;14881;48.092;11.574;2022-12-07T14:14:53;12.15;;;8.93;;
27428;SDS011;14881;48.092;11.574;2022-12-07T14:17:23;13.27;;;9.50;;
27428;SDS011;14881;48.092;11.574;2022-12-07T14:19:55;13.05;;;8.88;;
27428;SDS011;14881;48.092;11.574;2022-12-07T14:22:27;12.63;;;9.05;;
27428;SDS011;14881;48.092;11.574;2022-12-07T14:27:51;14.60;;;9.45;;
27428;SDS011;14881;48.092;11.574;2022-12-07T14:30:23;15.40;;;9.93;;
27428;SDS011;14881;48.092;11.574;2022-12-07T14:32:54;16.80;;;9.75;;
27428;SDS011;14881;48.092;11.574;2022-12-07T14:35:24;14.10;;;9.20;;
27428;SDS011;14881;48.092;11.574;2022-12-07T14:37:52;14.52;;;9.82;;
27428;SDS011;14881;48.092;11.574;2022-12-07T14:40:23;13.93;;;9.15;;
27428;SDS011;14881;48.092;11.574;2022-12-07T14:42:54;11.52;;;7.80;;
27428;SDS011;14881;48.092;11.574;2022-12-07T14:45:28;13.77;;;8.77;;
27428;SDS011;14881;48.092;11.574;2022-12-07T14:48:01;13.85;;;8.70;;
27428;SDS011;14881;48.092;11.574;2022-12-07T14:50:49;12.93;;;8.85;;
27428;SDS011;14881;48.092;11.574;2022-12-07T14:53:40;13.55;;;8.73;;
27428;SDS011;14881;48.092;11.574;2022-12-07T14:56:20;11.27;;;7.53;;
27428;SDS011;14881;48.092;11.574;2022-12-07T14:58:49;11.63;;;7.93;;
27428;SDS011;14881;48.092;11.574;2022-12-07T15:01:17;11.43;;;7.80;;
27428;SDS011;14881;48.092;11.574;2022-12-07T15:03:45;10.70;;;7.35;;
27428;SDS011;14881;48.092;11.574;2022-12-07T15:06:13;11.85;;;7.65;;
27428;SDS011;14881;48.092;11.574;2022-12-07T15:08:43;16.17;;;8.27;;
27428;SDS011;14881;48.092;11.574;2022-12-07T15:11:11;12.02;;;8.10;;
27428;SDS011;14881;48.092;11.574;2022-12-07T15:13:40;11.27;;;7.63;;
27428;SDS011;14881;48.092;11.574;2022-12-07T15:16:27;12.68;;;8.40;;
27428;SDS011;14881;48.092;11.574;2022-12-07T15:19:18;13.68;;;8.98;;
27428;SDS011;14881;48.092;11.574;2022-12-07T15:21:54;16.55;;;9.27;;
27428;SDS011;14881;48.092;11.574;2022-12-07T15:24:22;12.65;;;8.18;;